Time;durP1;ratioP1;P1;durP2;ratioP2;P2;SDS_P1;SDS_P2;PMS_P1;PMS_P2;Temp;Humidity;BMP_temperature;BMP_pressure;BME280_temperature;BME280_humidity;BME280_pressure;Samples;Min_cycle;Max_cycle;Signal;HPM_P1;HPM_P2
2023/01/05 00:01:43;;;;;;;15.77;3.20;;;10.00;99.90;;;;;;5037339;28;20052;-81
2023/01/05 00:04:09;;;;;;;23.15;3.78;;;9.80;99.90;;;;;;5037345;28;20045;-80
2023/01/05 00:06:36;;;;;;;18.77;5.22;;;10.30;99.90;;;;;;5037280;28;20080;-79
2023/01/05 00:09:03;;;;;;;20.27;3.67;;;9.80;99.90;;;;;;5037311;28;20124;-80
2023/01/05 00:22:51;;;;;;;23.00;4.32;;;9.80;99.90;;;;;;5036435;28;20057;-80
2023/01/05 00:25:25;;;;;;;15.77;3.53;;;9.80;99.90;;;;;;5037145;28;20386;-80
2023/01/05 00:27:52;;;;;;;25.67;4.88;;;9.80;99.90;;;;;;5036721;28;20061;-82
2023/01/05 00:30:23;;;;;;;23.00;4.53;;;9.80;99.90;;;;;;5036660;28;20455;-81
2023/01/05 00:32:50;;;;;;;19.75;3.92;;;9.90;99.90;;;;;;5036610;28;20069;-79
2023/01/05 00:35:16;;;;;;;26.13;4.38;;;9.80;99.90;;;;;;5036398;28;20112;-77
2023/01/05 00:37:42;;;;;;;21.07;4.40;;;9.80;99.90;;;;;;5018917;28;20087;-78
2023/01/05 00:40:12;;;;;;;26.65;4.25;;;9.80;99.90;;;;;;5036488;28;20049;-78
2023/01/05 00:42:38;;;;;;;27.38;4.18;;;9.80;99.90;;;;;;5018925;28;20044;-80
2023/01/05 00:45:06;;;;;;;26.35;4.68;;;9.90;99.90;;;;;;5036500;28;20045;-81
2023/01/05 00:47:31;;;;;;;23.15;4.68;;;9.80;99.90;;;;;;5035897;28;20510;-79
2023/01/05 00:49:57;;;;;;;23.73;3.85;;;9.90;99.90;;;;;;5036625;28;20131;-78
2023/01/05 00:52:22;;;;;;;26.50;4.20;;;9.80;99.90;;;;;;5018702;28;20041;-80
2023/01/05 00:54:48;;;;;;;26.45;4.88;;;9.80;99.90;;;;;;5036261;28;20033;-80
2023/01/05 00:57:14;;;;;;;22.20;3.80;;;10.10;99.90;;;;;;5035995;28;20041;-79
2023/01/05 00:59:40;;;;;;;17.35;4.25;;;9.80;99.90;;;;;;5036149;28;20580;-81
2023/01/05 01:02:06;;;;;;;20.42;3.53;;;9.90;99.90;;;;;;5035809;28;20033;-78
2023/01/05 01:04:33;;;;;;;21.98;4.35;;;10.00;99.90;;;;;;5035665;28;20041;-79
2023/01/05 01:06:58;;;;;;;;;;;9.90;99.90;;;;;;5036333;28;20434;-80
2023/01/05 01:09:25;;;;;;;22.92;3.63;;;9.90;99.90;;;;;;5035928;28;19996;-80
2023/01/05 01:11:50;;;;;;;23.70;4.17;;;9.90;99.90;;;;;;5035960;28;20045;-78
2023/01/05 01:14:17;;;;;;;26.95;5.35;;;9.90;99.90;;;;;;5035871;28;20092;-78
2023/01/05 01:16:43;;;;;;;24.98;4.20;;;10.00;99.90;;;;;;5017853;28;20517;-77
2023/01/05 01:19:20;;;;;;;22.60;4.95;;;9.90;99.90;;;;;;5035603;28;20045;-79
2023/01/05 01:21:46;;;;;;;;;;;9.90;99.90;;;;;;5036478;28;20042;-78
2023/01/05 01:24:19;;;;;;;26.90;4.68;;;9.90;99.90;;;;;;5035618;28;20385;-80
2023/01/05 01:26:51;;;;;;;22.98;4.75;;;9.90;99.90;;;;;;5035594;28;20041;-80
2023/01/05 01:29:17;;;;;;;29.65;6.10;;;9.90;99.90;;;;;;5035671;28;20401;-81
2023/01/05 01:31:44;;;;;;;24.45;4.35;;;9.90;99.90;;;;;;5035460;28;20045;-80
2023/01/05 01:34:09;;;;;;;23.25;4.88;;;9.90;99.90;;;;;;5035461;28;20460;-78
2023/01/05 01:36:35;;;;;;;27.67;4.63;;;10.60;99.90;;;;;;5017740;28;20145;-79
2023/01/05 01:39:01;;;;;;;26.02;5.13;;;9.90;99.90;;;;;;5035383;28;20093;-81
2023/01/05 01:41:26;;;;;;;23.08;5.22;;;9.90;99.90;;;;;;5035386;28;20124;-81
2023/01/05 01:43:54;;;;;;;25.85;4.18;;;10.00;99.90;;;;;;5017973;28;20053;-78
2023/01/05 01:46:21;;;;;;;23.02;5.13;;;9.90;99.90;;;;;;5035068;28;20085;-78
2023/01/05 01:48:57;;;;;;;;;;;9.90;99.90;;;;;;5035657;28;20482;-79
2023/01/05 01:51:31;;;;;;;22.23;4.60;;;9.90;99.90;;;;;;5018056;28;20325;-81
2023/01/05 01:54:00;;;;;;;22.35;5.00;;;9.90;99.90;;;;;;5035156;28;20042;-79
2023/01/05 01:56:34;;;;;;;26.17;4.78;;;9.90;99.90;;;;;;5035023;28;20069;-78
2023/01/05 01:59:00;;;;;;;27.95;4.60;;;10.60;99.90;;;;;;5034931;28;20056;-79
2023/01/05 02:01:25;;;;;;;25.83;4.37;;;10.20;99.90;;;;;;5034921;28;20045;-78
2023/01/05 02:03:52;;;;;;;26.75;5.30;;;10.20;99.90;;;;;;5016793;28;20128;-80
2023/01/05 02:06:18;;;;;;;25.75;4.40;;;10.10;99.90;;;;;;5017357;28;20041;-81
2023/01/05 02:08:44;;;;;;;20.75;4.38;;;9.90;99.90;;;;;;5034503;28;20045;-78
2023/01/05 02:11:31;;;;;;;18.02;4.85;;;10.40;99.90;;;;;;5017277;28;20199;-78
2023/01/05 02:14:18;;;;;;;16.17;3.38;;;9.90;99.90;;;;;;5034836;28;20482;-78
2023/01/05 02:16:57;;;;;;;21.35;3.85;;;9.90;99.90;;;;;;5034723;28;20088;-81
2023/01/05 02:19:50;;;;;;;16.52;3.63;;;9.90;99.90;;;;;;5034649;28;20085;-79
2023/01/05 02:22:42;;;;;;;19.55;3.60;;;9.90;99.90;;;;;;5034616;28;20096;-80
2023/01/05 02:25:19;;;;;;;18.98;3.80;;;9.90;99.90;;;;;;5034485;28;20478;-81
2023/01/05 02:28:22;;;;;;;18.70;3.78;;;10.30;99.90;;;;;;5017380;28;20112;-79
2023/01/05 02:31:11;;;;;;;23.23;3.70;;;9.80;99.90;;;;;;5016971;28;20049;-79
2023/01/05 02:33:59;;;;;;;17.77;3.85;;;9.80;99.90;;;;;;5034256;28;20049;-81
2023/01/05 02:36:38;;;;;;;20.13;3.40;;;9.80;99.90;;;;;;5034889;28;20057;-78
2023/01/05 02:39:14;;;;;;;19.63;4.78;;;9.80;99.90;;;;;;5034322;28;20581;-78
2023/01/05 02:41:49;;;;;;;20.70;3.70;;;9.80;99.90;;;;;;5034468;28;20065;-78
2023/01/05 02:44:18;;;;;;;15.32;3.53;;;9.80;99.90;;;;;;5034308;28;20050;-79
2023/01/05 02:46:45;;;;;;;21.45;3.90;;;9.80;99.90;;;;;;5034051;28;20041;-80
2023/01/05 02:49:14;;;;;;;23.15;4.45;;;9.80;99.90;;;;;;5034676;28;20045;-78
2023/01/05 02:51:47;;;;;;;17.85;3.35;;;9.80;99.90;;;;;;5033994;28;20073;-81
2023/01/05 02:54:47;;;;;;;15.15;4.10;;;10.10;99.90;;;;;;5034044;28;20143;-81
2023/01/05 02:57:45;;;;;;;18.83;3.80;;;9.80;99.90;;;;;;5016106;28;20054;-78
2023/01/05 03:00:06;;;;;;;23.10;3.58;;;9.80;99.90;;;;;;5033885;28;20074;-81
2023/01/05 03:02:33;;;;;;;18.40;3.30;;;9.80;99.90;;;;;;5016637;28;20393;-81
2023/01/05 03:05:09;;;;;;;20.08;3.90;;;9.80;99.90;;;;;;5000063;28;20049;-78
2023/01/05 03:07:38;;;;;;;16.30;3.58;;;9.90;99.90;;;;;;5033703;28;20056;-80
2023/01/05 03:16:00;;;;;;;21.00;3.80;;;9.90;99.90;;;;;;4999315;28;20049;-78
2023/01/05 03:18:27;;;;;;;18.27;4.32;;;9.80;99.90;;;;;;5033550;28;20041;-78
2023/01/05 03:20:54;;;;;;;19.02;3.85;;;9.90;99.90;;;;;;5033922;28;20057;-81
2023/01/05 03:37:58;;;;;;;20.20;4.10;;;9.50;99.90;;;;;;5033863;28;20089;-81
2023/01/05 03:40:29;;;;;;;19.45;3.50;;;9.50;99.90;;;;;;5016355;28;20367;-79
2023/01/05 03:42:56;;;;;;;22.67;4.18;;;9.60;99.90;;;;;;5015934;28;20500;-81
2023/01/05 03:45:24;;;;;;;22.80;3.40;;;9.50;99.90;;;;;;5033212;28;20033;-79
2023/01/05 03:47:49;;;;;;;21.50;4.15;;;9.50;99.90;;;;;;5033068;28;20512;-79
2023/01/05 03:50:16;;;;;;;22.23;3.75;;;10.10;99.90;;;;;;5033311;28;20056;-79
2023/01/05 03:52:41;;;;;;;19.57;3.77;;;9.50;99.90;;;;;;5033527;28;20034;-80
2023/01/05 03:55:07;;;;;;;18.73;4.07;;;9.60;99.90;;;;;;5033394;28;20812;-79
2023/01/05 03:57:33;;;;;;;14.50;3.50;;;9.50;99.90;;;;;;5033293;28;20103;-79
2023/01/05 03:59:59;;;;;;;18.90;4.18;;;9.50;99.90;;;;;;5033286;28;20053;-82
2023/01/05 04:02:24;;;;;;;23.45;3.85;;;9.80;99.90;;;;;;5015940;28;20076;-80
2023/01/05 04:04:50;;;;;;;21.10;4.13;;;9.50;99.90;;;;;;5033193;28;20045;-81
2023/01/05 04:07:15;;;;;;;17.02;3.50;;;9.50;99.90;;;;;;5015972;28;20084;-79
2023/01/05 04:09:41;;;;;;;16.52;3.83;;;9.60;99.90;;;;;;5033003;28;20050;-81
2023/01/05 04:12:06;;;;;;;22.75;3.53;;;9.60;99.90;;;;;;5033137;28;20457;-78
2023/01/05 04:14:32;;;;;;;20.08;3.85;;;9.60;99.90;;;;;;5015476;28;20105;-79
2023/01/05 04:16:58;;;;;;;16.67;3.75;;;9.60;99.90;;;;;;5033167;28;20505;-80
2023/01/05 04:19:23;;;;;;;17.52;3.70;;;9.60;99.90;;;;;;5033198;28;20132;-79
2023/01/05 04:21:49;;;;;;;20.13;3.83;;;9.90;99.90;;;;;;5033134;28;20049;-78
2023/01/05 04:24:14;;;;;;;18.67;3.75;;;9.70;99.90;;;;;;5033327;28;20041;-78
2023/01/05 04:26:41;;;;;;;20.45;4.75;;;9.70;99.90;;;;;;5034375;28;20075;-80
2023/01/05 04:29:09;;;;;;;18.45;3.70;;;9.70;99.90;;;;;;5036703;28;20045;-80
2023/01/05 04:31:34;;;;;;;25.48;5.05;;;9.70;99.90;;;;;;5019013;28;20053;-81
2023/01/05 04:34:00;;;;;;;21.25;3.45;;;9.90;99.90;;;;;;5036575;28;20184;-80
2023/01/05 04:36:26;;;;;;;22.45;3.40;;;9.80;99.90;;;;;;5037153;28;20489;-79
2023/01/05 04:38:51;;;;;;;24.77;4.05;;;9.70;99.90;;;;;;5036566;28;20041;-80
2023/01/05 04:41:17;;;;;;;18.08;4.00;;;9.70;99.90;;;;;;5018896;28;20132;-80
2023/01/05 04:43:42;;;;;;;18.33;4.30;;;9.70;99.90;;;;;;5018655;28;20379;-80
2023/01/05 04:46:08;;;;;;;23.73;4.90;;;9.70;99.90;;;;;;5036225;28;20037;-80
2023/01/05 04:48:34;;;;;;;10.77;3.00;;;9.70;99.90;;;;;;5002129;28;20080;-79
2023/01/05 04:50:59;;;;;;;21.10;3.85;;;10.20;99.90;;;;;;5036165;28;20041;-79
2023/01/05 04:53:25;;;;;;;17.45;3.75;;;9.70;99.90;;;;;;5018798;28;20057;-79
2023/01/05 04:55:51;;;;;;;21.55;3.92;;;9.70;99.90;;;;;;5036242;28;20041;-78
2023/01/05 04:58:19;;;;;;;21.83;3.75;;;9.70;99.90;;;;;;5036182;28;20075;-80
2023/01/05 05:00:44;;;;;;;22.02;3.97;;;9.70;99.90;;;;;;5036161;28;20045;-81
2023/01/05 05:03:10;;;;;;;17.02;3.65;;;9.80;99.90;;;;;;5036234;28;20425;-80
2023/01/05 05:05:35;;;;;;;17.58;3.92;;;9.70;99.90;;;;;;5036065;28;20457;-80
2023/01/05 05:08:01;;;;;;;12.10;3.47;;;9.70;99.90;;;;;;5036050;28;20052;-78
2023/01/05 05:10:27;;;;;;;19.48;3.58;;;9.70;99.90;;;;;;5036092;28;20128;-81
2023/01/05 05:12:52;;;;;;;15.88;3.42;;;9.70;99.90;;;;;;5036097;28;20037;-79
2023/01/05 05:15:18;;;;;;;15.38;3.58;;;9.70;99.90;;;;;;5035616;28;20049;-80
2023/01/05 05:17:44;;;;;;;14.07;3.67;;;9.70;99.90;;;;;;5035688;28;20426;-80
2023/01/05 05:20:09;;;;;;;16.58;3.58;;;9.70;99.90;;;;;;5018047;28;20049;-81
2023/01/05 05:22:35;;;;;;;12.88;3.50;;;9.70;99.90;;;;;;5035588;28;20045;-81
2023/01/05 05:25:01;;;;;;;18.92;3.10;;;9.70;99.90;;;;;;5001725;28;20132;-80
2023/01/05 05:27:26;;;;;;;20.67;4.10;;;9.80;99.90;;;;;;5035596;28;20067;-79
2023/01/05 05:29:52;;;;;;;16.10;4.20;;;9.70;99.90;;;;;;5017979;28;20046;-81
2023/01/05 05:32:17;;;;;;;15.85;3.65;;;9.70;99.90;;;;;;5035628;28;20363;-81
2023/01/05 05:34:43;;;;;;;19.65;3.13;;;9.70;99.90;;;;;;5035339;28;20073;-81
2023/01/05 05:37:09;;;;;;;14.75;3.67;;;9.70;99.90;;;;;;5035266;28;20061;-79
2023/01/05 05:39:34;;;;;;;22.83;4.22;;;9.70;99.90;;;;;;5016962;28;20065;-79
2023/01/05 05:42:00;;;;;;;17.85;4.10;;;9.70;99.90;;;;;;5035551;28;20047;-78
2023/01/05 05:44:25;;;;;;;10.10;2.63;;;9.70;99.90;;;;;;5035441;28;20445;-78
2023/01/05 05:46:51;;;;;;;15.07;3.65;;;9.80;99.90;;;;;;5035406;28;20056;-78
2023/01/05 05:49:17;;;;;;;16.98;3.55;;;9.80;99.90;;;;;;5017859;28;20081;-80
2023/01/05 05:51:42;;;;;;;13.82;3.10;;;9.70;99.90;;;;;;5035667;28;20576;-78
2023/01/05 05:54:08;;;;;;;19.15;3.22;;;9.70;99.90;;;;;;5036039;28;20136;-79
2023/01/05 05:56:33;;;;;;;20.08;3.50;;;9.70;99.90;;;;;;5035292;28;20480;-82
2023/01/05 05:58:59;;;;;;;12.63;3.40;;;9.70;99.90;;;;;;5035128;28;20053;-81
2023/01/05 06:01:25;;;;;;;20.55;3.65;;;9.70;99.90;;;;;;5035070;28;20050;-81
2023/01/05 06:03:50;;;;;;;19.17;3.33;;;9.80;99.90;;;;;;5034962;28;20121;-82
2023/01/05 06:06:16;;;;;;;14.30;3.28;;;9.70;99.90;;;;;;5034846;28;20071;-79
2023/01/05 06:08:41;;;;;;;19.15;3.58;;;9.70;99.90;;;;;;5035117;28;20041;-82
2023/01/05 06:11:07;;;;;;;21.63;3.88;;;10.10;99.90;;;;;;5034841;28;20053;-81
2023/01/05 06:13:32;;;;;;;20.67;4.00;;;9.70;99.90;;;;;;5034784;28;20037;-80
2023/01/05 06:15:58;;;;;;;24.05;4.00;;;9.70;99.90;;;;;;5034682;28;20453;-80
2023/01/05 06:18:24;;;;;;;23.02;3.45;;;9.70;99.90;;;;;;5034972;28;20085;-80
2023/01/05 06:20:49;;;;;;;20.98;3.92;;;10.00;99.90;;;;;;5000733;28;20401;-80
2023/01/05 06:23:15;;;;;;;22.73;4.30;;;9.90;99.90;;;;;;5034993;28;20088;-82
2023/01/05 06:25:41;;;;;;;13.38;3.03;;;10.10;99.90;;;;;;5034640;28;20061;-78
2023/01/05 06:28:07;;;;;;;15.30;3.40;;;9.70;99.90;;;;;;5017075;28;20140;-81
2023/01/05 06:30:33;;;;;;;21.33;4.05;;;9.80;99.90;;;;;;5034491;28;20125;-82
2023/01/05 06:32:58;;;;;;;15.73;3.45;;;9.80;99.90;;;;;;5034887;28;20045;-80
2023/01/05 06:35:24;;;;;;;20.02;3.30;;;9.80;99.90;;;;;;5016704;28;20054;-80
2023/01/05 06:37:49;;;;;;;14.68;3.47;;;9.80;99.90;;;;;;5034304;28;20397;-82
2023/01/05 06:40:15;;;;;;;21.73;3.55;;;9.80;99.90;;;;;;5034279;28;20048;-80
2023/01/05 06:42:41;;;;;;;19.48;3.90;;;9.80;99.90;;;;;;5016830;28;20048;-82
2023/01/05 06:45:09;;;;;;;15.02;3.22;;;9.80;99.90;;;;;;5033933;28;20395;-80
2023/01/05 06:47:35;;;;;;;25.30;4.60;;;9.80;99.90;;;;;;5016514;28;20057;-83
2023/01/05 06:50:00;;;;;;;24.75;3.75;;;9.70;99.90;;;;;;5033886;28;20041;-81
2023/01/05 06:52:26;;;;;;;20.83;4.03;;;9.70;99.90;;;;;;5017069;28;20037;-82
2023/01/05 06:54:51;;;;;;;19.98;3.55;;;10.20;99.90;;;;;;5034034;28;20092;-79
2023/01/05 06:57:17;;;;;;;20.23;3.92;;;9.70;99.90;;;;;;5016847;28;20056;-81
2023/01/05 06:59:43;;;;;;;23.05;3.88;;;9.90;99.90;;;;;;5033841;28;20042;-80
2023/01/05 07:02:15;;;;;;;15.32;2.97;;;9.80;99.90;;;;;;5033931;28;20045;-79
2023/01/05 07:04:41;;;;;;;17.13;3.63;;;9.70;99.90;;;;;;5033717;28;20046;-82
2023/01/05 07:07:10;;;;;;;25.10;4.88;;;9.70;99.90;;;;;;5016430;28;20426;-79
2023/01/05 07:09:36;;;;;;;15.07;3.55;;;9.70;99.90;;;;;;5033750;28;20045;-82
2023/01/05 07:12:01;;;;;;;25.88;4.22;;;9.70;99.90;;;;;;5033850;28;20492;-80
2023/01/05 07:14:27;;;;;;;20.65;3.63;;;9.70;99.90;;;;;;5033423;28;20052;-82
2023/01/05 07:16:53;;;;;;;23.80;3.78;;;9.70;99.90;;;;;;5033758;28;20046;-80
2023/01/05 07:19:18;;;;;;;22.63;3.88;;;9.70;99.90;;;;;;5050480;28;20053;-81
2023/01/05 07:21:44;;;;;;;23.35;3.55;;;9.70;99.90;;;;;;5053930;28;20041;-80
2023/01/05 07:24:09;;;;;;;23.52;3.88;;;9.70;99.90;;;;;;5036020;28;20049;-81
2023/01/05 07:26:35;;;;;;;20.23;4.65;;;9.60;99.90;;;;;;5053455;28;20071;-79
2023/01/05 07:29:00;;;;;;;17.92;3.83;;;10.00;99.90;;;;;;5053688;28;20048;-80
2023/01/05 07:31:26;;;;;;;23.25;4.03;;;9.70;99.90;;;;;;5036082;28;20067;-81
2023/01/05 07:33:52;;;;;;;19.42;4.55;;;9.90;99.90;;;;;;5019468;28;20052;-81
2023/01/05 07:36:17;;;;;;;19.95;3.80;;;9.70;99.90;;;;;;5053994;28;20049;-79
2023/01/05 07:38:43;;;;;;;25.13;5.50;;;9.60;99.90;;;;;;5053768;28;20548;-79
2023/01/05 07:41:09;;;;;;;23.23;5.22;;;9.60;99.90;;;;;;5053660;28;20477;-81
2023/01/05 07:43:34;;;;;;;16.52;3.22;;;10.30;99.90;;;;;;5053506;28;20142;-80
2023/01/05 07:46:01;;;;;;;16.70;4.45;;;9.50;99.90;;;;;;5053284;28;20465;-78
2023/01/05 07:48:27;;;;;;;20.63;3.88;;;9.50;99.90;;;;;;5053315;28;20049;-78
2023/01/05 07:51:01;;;;;;;20.80;4.68;;;9.60;99.90;;;;;;5053288;28;20045;-79
2023/01/05 07:53:28;;;;;;;26.08;4.63;;;9.50;99.90;;;;;;5053392;28;20064;-78
2023/01/05 07:55:54;;;;;;;;;;;9.50;99.90;;;;;;5053748;28;20037;-79
2023/01/05 07:58:20;;;;;;;17.02;3.38;;;9.80;99.90;;;;;;5053103;28;20019;-78
2023/01/05 08:00:45;;;;;;;17.33;3.80;;;9.60;99.90;;;;;;5035625;28;20135;-81
2023/01/05 08:03:11;;;;;;;22.25;4.07;;;9.80;99.90;;;;;;5039547;28;20045;-80
2023/01/05 08:05:36;;;;;;;24.38;4.00;;;9.50;99.90;;;;;;5057112;28;20553;-79
2023/01/05 08:08:02;;;;;;;18.95;4.20;;;9.50;99.90;;;;;;5056988;28;20119;-79
2023/01/05 08:10:28;;;;;;;15.75;3.65;;;9.50;99.90;;;;;;5057091;28;20084;-80
2023/01/05 08:15:38;;;;;;;20.60;4.50;;;9.50;99.90;;;;;;5057067;28;20401;-80
2023/01/05 08:18:03;;;;;;;19.13;4.15;;;9.80;99.90;;;;;;5057023;28;20043;-84
2023/01/05 08:20:29;;;;;;;17.23;3.30;;;9.40;99.90;;;;;;5039173;28;20049;-86
2023/01/05 08:22:55;;;;;;;22.73;3.83;;;9.40;99.90;;;;;;5022028;28;20071;-81
2023/01/05 08:25:20;;;;;;;17.95;3.67;;;9.40;99.90;;;;;;5058015;28;20037;-81
2023/01/05 08:27:46;;;;;;;22.40;4.00;;;9.40;99.90;;;;;;5057719;28;20048;-82
2023/01/05 08:30:13;;;;;;;19.53;3.70;;;9.40;99.90;;;;;;5022758;28;20041;-84
2023/01/05 08:32:39;;;;;;;18.47;3.73;;;9.40;99.90;;;;;;5056631;28;20283;-82
2023/01/05 08:35:06;;;;;;;17.88;3.70;;;9.30;99.90;;;;;;5056430;28;20288;-82
2023/01/05 08:37:31;;;;;;;21.95;4.18;;;9.30;99.90;;;;;;5056560;28;20473;-82
2023/01/05 08:39:57;;;;;;;21.88;4.20;;;9.40;99.90;;;;;;5056507;28;20048;-80
2023/01/05 08:42:22;;;;;;;20.70;3.90;;;9.40;99.90;;;;;;5038826;28;20186;-82
2023/01/05 08:44:48;;;;;;;21.30;3.75;;;9.60;99.90;;;;;;5056353;28;20048;-81
2023/01/05 08:47:14;;;;;;;21.90;4.20;;;9.40;99.90;;;;;;5056592;28;20047;-82
2023/01/05 08:49:40;;;;;;;26.90;4.47;;;9.40;99.90;;;;;;5038457;28;20045;-83
2023/01/05 08:52:07;;;;;;;20.58;4.25;;;9.40;99.90;;;;;;5002766;28;20054;-82
2023/01/05 08:54:32;;;;;;;18.17;4.18;;;9.40;99.90;;;;;;5002226;28;20048;-81
2023/01/05 08:56:58;;;;;;;23.35;4.57;;;10.20;99.90;;;;;;5017237;28;20519;-80
2023/01/05 08:59:24;;;;;;;20.77;3.72;;;9.40;99.90;;;;;;5017562;28;20048;-82
2023/01/05 09:01:49;;;;;;;25.17;4.50;;;9.50;99.90;;;;;;5018658;28;20490;-82
2023/01/05 09:04:15;;;;;;;19.45;3.72;;;9.50;99.90;;;;;;5018542;28;20511;-82
2023/01/05 09:06:40;;;;;;;16.92;4.47;;;10.10;99.90;;;;;;5018140;28;20084;-79
2023/01/05 09:09:06;;;;;;;15.45;3.70;;;9.60;99.90;;;;;;5018029;28;20516;-81
2023/01/05 09:11:33;;;;;;;24.08;4.35;;;9.60;99.90;;;;;;5018255;28;20041;-82
2023/01/05 09:14:01;;;;;;;19.33;3.45;;;9.60;99.90;;;;;;5018508;28;20050;-81
2023/01/05 09:16:29;;;;;;;20.77;3.90;;;9.60;99.90;;;;;;5017952;28;20054;-81
2023/01/05 09:18:57;;;;;;;16.50;3.60;;;9.60;99.90;;;;;;5018227;28;20045;-80
2023/01/05 09:21:22;;;;;;;10.35;3.38;;;9.70;99.90;;;;;;5018307;28;20057;-85
2023/01/05 09:23:48;;;;;;;17.95;3.60;;;9.70;99.90;;;;;;5018182;28;20409;-83
2023/01/05 09:26:15;;;;;;;16.80;3.97;;;10.30;99.90;;;;;;5017792;28;20044;-82
2023/01/05 09:28:41;;;;;;;16.08;3.63;;;9.90;99.90;;;;;;5001900;28;20055;-82
2023/01/05 09:31:15;;;;;;;15.63;3.42;;;9.70;99.90;;;;;;5035538;28;20056;-82
2023/01/05 09:33:42;;;;;;;12.48;3.35;;;9.70;99.90;;;;;;5001650;28;20046;-82
2023/01/05 09:36:09;;;;;;;21.25;3.45;;;9.70;99.90;;;;;;5017672;28;20104;-82
2023/01/05 09:38:35;;;;;;;19.02;3.03;;;9.90;99.90;;;;;;5000986;28;20148;-80
2023/01/05 09:41:21;;;;;;;13.70;3.10;;;9.80;99.90;;;;;;5034361;28;20064;-82
2023/01/05 09:43:51;;;;;;;26.52;3.83;;;9.80;99.90;;;;;;5035053;28;20058;-82
2023/01/05 09:46:20;;;;;;;19.98;3.75;;;9.80;99.90;;;;;;5017339;28;20037;-81
2023/01/05 09:48:51;;;;;;;15.75;3.88;;;9.80;99.90;;;;;;5015810;28;20452;-82
2023/01/05 09:51:17;;;;;;;18.77;3.08;;;9.90;99.90;;;;;;5034937;28;20045;-83
2023/01/05 09:53:43;;;;;;;19.38;4.13;;;9.80;99.90;;;;;;5034937;28;20517;-82
2023/01/05 09:56:25;;;;;;;15.23;3.27;;;9.90;99.90;;;;;;5034898;28;20465;-82
2023/01/05 09:58:54;;;;;;;20.77;3.95;;;9.90;99.90;;;;;;5017143;28;20456;-82
2023/01/05 10:01:21;;;;;;;19.77;3.92;;;9.90;99.90;;;;;;5009597;28;20045;-83
2023/01/05 10:03:58;;;;;;;21.35;3.67;;;9.90;99.90;;;;;;5000660;28;20049;-82
2023/01/05 10:06:28;;;;;;;14.82;3.83;;;9.90;99.90;;;;;;5033602;28;20371;-81
2023/01/05 10:08:55;;;;;;;24.52;3.65;;;9.90;99.90;;;;;;5034916;28;20042;-80
2023/01/05 10:14:11;;;;;;;17.95;3.42;;;10.00;99.90;;;;;;5017353;28;19921;-81
2023/01/05 10:16:38;;;;;;;21.25;3.80;;;10.20;99.90;;;;;;5017483;28;20045;-82
2023/01/05 10:19:09;;;;;;;13.10;3.40;;;10.10;99.90;;;;;;5017180;28;20048;-81
2023/01/05 10:22:17;;;;;;;15.23;3.95;;;10.00;99.90;;;;;;5034955;28;20128;-82
2023/01/05 10:24:57;;;;;;;18.33;3.30;;;10.00;99.90;;;;;;5016654;28;20049;-81
2023/01/05 10:27:29;;;;;;;16.52;3.40;;;10.00;99.90;;;;;;5034958;28;20151;-81
2023/01/05 10:30:32;;;;;;;22.20;3.55;;;10.00;99.90;;;;;;5016937;28;20046;-82
2023/01/05 10:32:59;;;;;;;13.55;3.60;;;10.00;99.90;;;;;;5034372;28;20470;-81
2023/01/05 10:35:42;;;;;;;;;;;10.00;99.90;;;;;;5027242;28;20050;-81
2023/01/05 10:38:25;;;;;;;15.00;3.08;;;10.10;99.90;;;;;;5014701;28;20056;-82
2023/01/05 10:41:11;;;;;;;15.23;3.45;;;10.00;99.90;;;;;;4981028;28;20049;-82
2023/01/05 10:44:06;;;;;;;24.27;3.25;;;10.10;99.90;;;;;;5014530;28;20452;-82
2023/01/05 10:46:34;;;;;;;13.52;3.45;;;10.10;99.90;;;;;;5014262;28;20125;-82
2023/01/05 10:49:00;;;;;;;13.30;3.08;;;10.10;99.90;;;;;;4996852;28;20050;-82
2023/01/05 10:51:29;;;;;;;12.15;2.92;;;10.20;99.90;;;;;;4980617;28;20052;-82
2023/01/05 10:53:54;;;;;;;21.67;3.22;;;10.10;99.90;;;;;;5014307;28;20060;-81
2023/01/05 10:56:27;;;;;;;17.92;3.13;;;10.20;99.90;;;;;;4997257;28;20548;-80
2023/01/05 10:59:10;;;;;;;17.60;3.83;;;10.30;99.90;;;;;;4996800;28;20506;-81
2023/01/05 11:01:40;;;;;;;14.80;2.83;;;10.20;99.90;;;;;;4997194;28;20050;-81
2023/01/05 11:04:19;;;;;;;16.15;3.25;;;10.20;99.90;;;;;;5014452;28;20054;-82
2023/01/05 11:06:46;;;;;;;14.35;2.83;;;10.20;99.90;;;;;;4996916;28;20104;-82
2023/01/05 11:09:14;;;;;;;19.10;3.38;;;10.10;99.90;;;;;;5014438;28;20041;-82
2023/01/05 11:11:40;;;;;;;13.38;3.15;;;10.20;99.90;;;;;;4997024;28;20065;-82
2023/01/05 11:14:15;;;;;;;10.90;2.58;;;10.20;99.90;;;;;;4980890;28;20053;-81
2023/01/05 11:16:48;;;;;;;10.00;2.63;;;10.20;99.90;;;;;;5013533;28;20506;-81
2023/01/05 11:19:16;;;;;;;15.20;3.83;;;10.20;99.90;;;;;;5014236;28;20129;-83
2023/01/05 11:21:44;;;;;;;14.77;2.95;;;10.20;99.90;;;;;;4980899;28;20050;-82
2023/01/05 11:24:22;;;;;;;11.65;2.92;;;10.30;99.90;;;;;;5014363;28;20042;-80
2023/01/05 11:26:57;;;;;;;13.38;2.67;;;10.30;99.90;;;;;;4996704;28;20041;-85
2023/01/05 11:29:23;;;;;;;10.50;2.72;;;10.30;99.90;;;;;;5013601;28;20088;-83
2023/01/05 11:32:02;;;;;;;11.20;2.15;;;10.30;99.90;;;;;;4997903;28;20053;-82
2023/01/05 11:34:30;;;;;;;11.52;2.55;;;10.30;99.90;;;;;;4997891;28;20077;-84
2023/01/05 11:37:01;;;;;;;8.88;2.63;;;10.30;99.90;;;;;;5035700;28;20049;-81
2023/01/05 11:39:36;;;;;;;22.08;3.25;;;10.30;99.90;;;;;;5037777;28;20053;-84
2023/01/05 11:42:11;;;;;;;11.00;3.22;;;10.40;99.90;;;;;;5020149;28;20485;-83
2023/01/05 11:44:42;;;;;;;13.32;3.20;;;10.30;99.90;;;;;;5020291;28;20048;-84
2023/01/05 11:47:09;;;;;;;13.30;2.97;;;10.30;99.90;;;;;;5020288;28;20041;-85
2023/01/05 11:49:35;;;;;;;13.52;2.72;;;10.30;99.90;;;;;;5037848;28;20406;-83
2023/01/05 11:52:01;;;;;;;21.83;3.10;;;10.30;99.90;;;;;;5037520;28;20041;-83
2023/01/05 11:54:37;;;;;;;16.35;3.33;;;10.30;99.90;;;;;;5003606;28;20048;-79
2023/01/05 11:57:11;;;;;;;12.35;3.28;;;10.30;99.90;;;;;;5037222;28;20131;-80
2023/01/05 11:59:37;;;;;;;11.82;2.90;;;10.30;99.90;;;;;;5037709;28;20045;-80
2023/01/05 12:02:24;;;;;;;16.45;3.38;;;10.40;99.90;;;;;;5037392;28;20207;-81
2023/01/05 12:05:16;;;;;;;18.38;3.85;;;10.30;99.90;;;;;;5019463;28;20041;-82
2023/01/05 12:07:52;;;;;;;15.75;3.28;;;10.30;99.90;;;;;;5003376;28;20092;-81
2023/01/05 12:10:26;;;;;;;12.45;3.10;;;10.30;99.90;;;;;;5037303;28;20049;-80
2023/01/05 12:13:00;;;;;;;26.75;3.22;;;10.40;99.90;;;;;;5037107;28;20042;-82
2023/01/05 12:16:04;;;;;;;15.45;3.65;;;10.30;99.90;;;;;;5037100;28;20064;-80
2023/01/05 12:18:58;;;;;;;15.05;3.08;;;10.40;99.90;;;;;;4921434;29;20043;-82
2023/01/05 12:21:26;;;;;;;11.98;2.80;;;10.40;99.90;;;;;;5033088;28;20529;-81
2023/01/05 12:24:13;;;;;;;13.32;3.13;;;10.40;99.90;;;;;;5037135;28;20473;-84
2023/01/05 12:26:55;;;;;;;9.57;2.50;;;10.40;99.90;;;;;;5003749;28;20136;-82
2023/01/05 12:29:42;;;;;;;12.52;2.97;;;10.40;99.90;;;;;;5036835;28;20052;-83
2023/01/05 12:32:36;;;;;;;11.38;3.20;;;10.40;99.90;;;;;;5019358;28;20041;-79
2023/01/05 12:35:17;;;;;;;15.52;2.78;;;10.50;99.90;;;;;;5021441;28;20058;-79
2023/01/05 12:38:04;;;;;;;8.45;2.83;;;10.50;99.90;;;;;;5020028;28;20045;-82
2023/01/05 12:40:52;;;;;;;14.00;2.75;;;10.50;99.90;;;;;;5036625;28;20132;-81
2023/01/05 12:43:36;;;;;;;18.17;3.25;;;10.40;99.90;;;;;;5036553;28;20453;-78
2023/01/05 12:46:20;;;;;;;11.65;2.53;;;10.40;99.90;;;;;;5036687;28;20102;-82
2023/01/05 12:48:52;;;;;;;9.88;2.60;;;10.40;99.90;;;;;;5036323;28;20055;-82
2023/01/05 12:51:23;;;;;;;13.10;3.15;;;11.00;99.90;;;;;;5036992;28;20134;-84
2023/01/05 12:54:26;;;;;;;12.60;2.85;;;10.40;99.90;;;;;;5036771;28;20460;-83
2023/01/05 12:56:55;;;;;;;15.57;4.25;;;10.40;99.90;;;;;;5037452;28;20084;-86
2023/01/05 12:59:33;;;;;;;21.02;3.63;;;10.30;99.90;;;;;;5036794;28;20045;-80
2023/01/05 13:02:14;;;;;;;16.73;3.53;;;10.30;99.90;;;;;;5019450;28;20045;-80
2023/01/05 13:04:48;;;;;;;14.40;3.70;;;10.20;99.90;;;;;;5036372;28;20136;-83
2023/01/05 13:07:24;;;;;;;11.65;3.30;;;10.20;99.90;;;;;;5036511;28;20103;-81
2023/01/05 13:09:57;;;;;;;12.98;3.38;;;10.20;99.90;;;;;;5036121;28;20482;-81
2023/01/05 13:12:23;;;;;;;10.13;3.00;;;10.10;99.90;;;;;;5018485;28;20509;-79
2023/01/05 13:15:03;;;;;;;19.20;3.37;;;10.10;99.90;;;;;;5036299;28;20404;-87
2023/01/05 13:17:33;;;;;;;15.50;3.10;;;10.10;99.90;;;;;;5002408;28;20084;-82
2023/01/05 13:20:15;;;;;;;11.55;3.38;;;10.30;99.90;;;;;;5036009;28;20065;-81
2023/01/05 13:22:43;;;;;;;11.82;3.42;;;10.10;99.90;;;;;;5036519;28;20045;-86
2023/01/05 13:25:32;;;;;;;13.00;3.25;;;10.40;99.90;;;;;;5002687;28;20132;-81
2023/01/05 13:27:58;;;;;;;15.60;3.22;;;10.00;99.90;;;;;;5036267;28;20460;-83
2023/01/05 13:30:28;;;;;;;13.50;3.50;;;10.10;99.90;;;;;;5018806;28;20127;-86
2023/01/05 13:33:02;;;;;;;19.92;4.28;;;10.00;99.90;;;;;;5002080;28;20405;-83
2023/01/05 13:36:16;;;;;;;12.05;2.95;;;10.00;99.90;;;;;;5036057;28;20140;-82
2023/01/05 13:39:06;;;;;;;16.52;3.92;;;10.00;99.90;;;;;;4935041;29;20059;-81